createdAt,value
2019-02-20T00:02:02.329Z,37.56
2019-02-20T00:04:32.743Z,37.54
2019-02-20T00:07:03.114Z,37.51
2019-02-20T00:09:33.490Z,37.48
2019-02-20T00:12:03.913Z,37.44
2019-02-20T00:14:34.328Z,37.40
2019-02-20T00:17:04.675Z,37.37
2019-02-20T00:19:35.029Z,37.34
2019-02-20T00:22:05.413Z,37.37
2019-02-20T00:24:35.731Z,37.39
2019-02-20T00:27:06.073Z,37.36
2019-02-20T00:29:36.422Z,37.31
2019-02-20T00:32:06.843Z,37.33
2019-02-20T00:34:37.182Z,37.30
2019-02-20T00:37:07.512Z,37.24
2019-02-20T00:39:37.946Z,37.21
2019-02-20T00:42:10.709Z,37.19
2019-02-20T00:45:12.338Z,37.15
2019-02-20T00:47:57.208Z,37.18
2019-02-20T00:50:29.472Z,37.16
2019-02-20T00:53:08.199Z,37.07
2019-02-20T00:55:38.608Z,37.08
2019-02-20T00:58:08.814Z,37.07
2019-02-20T01:00:39.238Z,37.06
2019-02-20T01:03:09.626Z,37.02
2019-02-20T01:05:40.051Z,36.98
2019-02-20T01:08:10.380Z,36.98
2019-02-20T01:10:40.701Z,36.99
2019-02-20T01:13:11.020Z,36.93
2019-02-20T01:15:41.464Z,36.95
2019-02-20T01:18:13.071Z,36.92
2019-02-20T01:20:43.414Z,36.91
2019-02-20T01:23:13.795Z,36.88
2019-02-20T01:25:44.279Z,36.86
2019-02-20T01:28:14.813Z,36.82
2019-02-20T01:30:45.136Z,36.81
2019-02-20T01:33:16.596Z,36.80
2019-02-20T01:35:46.999Z,36.79
2019-02-20T01:38:17.414Z,36.79
2019-02-20T01:40:47.758Z,36.73
2019-02-20T01:43:18.102Z,36.71
2019-02-20T01:45:48.531Z,36.67
2019-02-20T01:48:18.917Z,36.69
2019-02-20T01:50:49.769Z,36.69
2019-02-20T01:53:20.141Z,36.65
2019-02-20T01:55:51.911Z,36.63
2019-02-20T01:58:22.301Z,36.60
2019-02-20T02:00:52.739Z,36.55
2019-02-20T02:03:23.138Z,36.58
2019-02-20T02:05:56.531Z,36.54
2019-02-20T02:08:26.898Z,36.52
2019-02-20T02:10:58.324Z,36.49
2019-02-20T02:13:28.630Z,36.51
2019-02-20T02:15:59.167Z,36.47
2019-02-20T02:18:31.316Z,36.43
2019-02-20T02:21:01.629Z,36.40
2019-02-20T02:23:31.990Z,36.45
2019-02-20T02:26:10.612Z,36.40
2019-02-20T02:28:36.745Z,36.36
2019-02-20T02:31:07.088Z,36.39
2019-02-20T02:33:37.448Z,36.35
2019-02-20T02:36:07.744Z,36.32
2019-02-20T02:38:40.188Z,36.35
2019-02-20T02:41:12.655Z,36.32
2019-02-20T02:43:44.109Z,36.29
2019-02-20T02:46:16.579Z,36.28
2019-02-20T02:48:46.923Z,36.26
2019-02-20T02:51:17.416Z,36.24
2019-02-20T02:53:48.502Z,36.22
2019-02-20T02:56:20.209Z,36.21
2019-02-20T02:58:54.874Z,36.22
2019-02-20T03:01:25.180Z,36.19
2019-02-20T03:03:55.541Z,36.14
2019-02-20T03:06:29.460Z,36.17
2019-02-20T03:09:00.048Z,36.12
2019-02-20T03:11:30.620Z,36.15
2019-02-20T03:14:02.783Z,36.05
2019-02-20T03:16:35.448Z,36.08
2019-02-20T03:19:05.784Z,36.07
2019-02-20T03:21:36.151Z,36.05
2019-02-20T03:24:06.456Z,35.99
2019-02-20T03:26:38.424Z,36.00
2019-02-20T03:29:09.799Z,35.99
2019-02-20T03:31:40.220Z,35.95
2019-02-20T03:34:10.605Z,35.95
2019-02-20T03:36:40.998Z,35.92
2019-02-20T03:39:11.489Z,35.89
2019-02-20T03:41:41.968Z,35.91
2019-02-20T03:44:12.390Z,35.89
2019-02-20T03:46:42.778Z,35.88
2019-02-20T03:49:13.192Z,35.90
2019-02-20T03:51:43.524Z,35.88
2019-02-20T03:54:13.864Z,35.89
2019-02-20T03:56:44.204Z,35.85
2019-02-20T03:59:17.357Z,35.84
2019-02-20T04:01:47.771Z,35.81
2019-02-20T04:04:18.137Z,35.77
2019-02-20T04:06:48.542Z,35.77
2019-02-20T04:09:18.900Z,35.77
2019-02-20T04:11:49.311Z,35.74
2019-02-20T04:14:19.742Z,35.71
2019-02-20T04:16:50.198Z,35.73
2019-02-20T04:19:20.580Z,35.70
2019-02-20T04:21:51.005Z,35.71
2019-02-20T04:24:21.312Z,35.68
2019-02-20T04:26:51.712Z,35.70
2019-02-20T04:29:21.978Z,35.68
2019-02-20T04:31:52.389Z,35.64
2019-02-20T04:34:22.779Z,35.63
2019-02-20T04:36:53.235Z,35.63
2019-02-20T04:39:24.616Z,35.60
2019-02-20T04:41:55.026Z,35.61
2019-02-20T04:44:25.371Z,35.58
2019-02-20T04:46:55.831Z,35.56
2019-02-20T04:49:26.212Z,35.57
2019-02-20T04:51:56.607Z,35.52
2019-02-20T04:54:27.016Z,35.54
2019-02-20T04:56:58.189Z,35.50
2019-02-20T04:59:28.538Z,35.51
2019-02-20T05:01:58.920Z,35.50
2019-02-20T05:04:29.552Z,35.45
2019-02-20T05:06:59.955Z,35.48
2019-02-20T05:09:30.292Z,35.48
2019-02-20T05:12:01.091Z,35.46
2019-02-20T05:14:32.417Z,35.45
2019-02-20T05:17:02.779Z,35.42
2019-02-20T05:19:34.035Z,35.44
2019-02-20T05:22:04.435Z,35.35
2019-02-20T05:24:34.801Z,35.40
2019-02-20T05:27:05.105Z,35.43
2019-02-20T05:29:35.533Z,35.45
2019-02-20T05:32:05.800Z,35.45
2019-02-20T05:34:36.149Z,35.44
2019-02-20T05:37:06.525Z,35.40
2019-02-20T05:39:36.888Z,35.50
2019-02-20T05:42:07.268Z,35.51
2019-02-20T05:44:37.668Z,35.52
2019-02-20T05:47:08.104Z,35.53
2019-02-20T05:49:38.475Z,35.50
2019-02-20T05:52:10.485Z,35.54
2019-02-20T05:54:40.828Z,35.57
2019-02-20T05:57:11.369Z,35.51
2019-02-20T05:59:41.760Z,35.54
2019-02-20T06:02:12.091Z,35.55
2019-02-20T06:04:43.499Z,35.53
2019-02-20T06:07:13.921Z,35.53
2019-02-20T06:09:44.805Z,35.48
2019-02-20T06:12:15.117Z,35.47
2019-02-20T06:14:45.470Z,35.46
2019-02-20T06:17:15.882Z,35.53
2019-02-20T06:19:46.277Z,35.82
2019-02-20T06:22:16.658Z,35.88
2019-02-20T06:24:47.047Z,35.90
2019-02-20T06:27:17.394Z,35.93
2019-02-20T06:29:47.751Z,35.99
2019-02-20T06:32:18.118Z,35.99
2019-02-20T06:34:48.603Z,36.00
2019-02-20T06:37:19.017Z,36.01
2019-02-20T06:39:49.398Z,35.99
2019-02-20T06:42:19.766Z,35.99
2019-02-20T06:44:50.182Z,36.06
2019-02-20T06:47:20.641Z,36.00
2019-02-20T06:49:51.050Z,35.98
2019-02-20T06:52:21.395Z,35.98
2019-02-20T06:54:54.197Z,35.97
2019-02-20T06:57:24.717Z,35.96
2019-02-20T06:59:55.126Z,35.95
2019-02-20T07:02:25.541Z,35.94
2019-02-20T07:05:45.213Z,35.93
2019-02-20T07:08:58.499Z,35.97
2019-02-20T07:11:51.507Z,35.95
2019-02-20T07:15:14.952Z,35.94
2019-02-20T07:17:59.941Z,35.95
2019-02-20T07:21:06.163Z,35.94
2019-02-20T07:24:07.493Z,35.93
2019-02-20T07:27:20.653Z,35.93
2019-02-20T07:30:07.389Z,35.96
2019-02-20T07:32:37.821Z,35.93
2019-02-20T07:35:10.721Z,35.90
2019-02-20T07:37:41.221Z,35.85
2019-02-20T07:40:12.758Z,35.81
2019-02-20T07:42:43.383Z,35.85
2019-02-20T07:45:14.985Z,35.83
2019-02-20T07:47:48.171Z,35.80
2019-02-20T07:50:19.870Z,35.82
2019-02-20T07:52:50.932Z,35.77
2019-02-20T07:55:21.389Z,35.76
2019-02-20T07:57:51.756Z,35.77
2019-02-20T08:00:22.160Z,35.75
2019-02-20T08:02:52.476Z,35.74
2019-02-20T08:05:22.818Z,35.75
2019-02-20T08:07:53.414Z,35.77
2019-02-20T08:10:24.776Z,35.77
2019-02-20T08:12:56.093Z,35.75
2019-02-20T08:15:26.790Z,35.73
2019-02-20T08:17:57.170Z,35.76
2019-02-20T08:20:27.563Z,35.76
2019-02-20T08:22:58.030Z,35.77
2019-02-20T08:25:28.896Z,35.78
2019-02-20T08:27:59.355Z,35.78
2019-02-20T08:30:29.747Z,35.77
2019-02-20T08:33:00.148Z,35.77
2019-02-20T08:35:30.875Z,35.74
2019-02-20T08:38:01.226Z,35.71
2019-02-20T08:40:31.631Z,35.79
2019-02-20T08:43:02.068Z,35.83
2019-02-20T08:45:32.424Z,35.83
2019-02-20T08:48:03.437Z,35.79
2019-02-20T08:50:33.932Z,35.80
2019-02-20T08:53:04.344Z,35.82
2019-02-20T08:55:38.688Z,35.80
2019-02-20T08:58:09.061Z,35.76
2019-02-20T09:00:39.488Z,35.82
2019-02-20T09:03:09.891Z,35.86
2019-02-20T09:05:40.434Z,35.90
2019-02-20T09:08:13.112Z,35.85
2019-02-20T09:10:43.437Z,35.79
2019-02-20T09:13:13.980Z,35.34
2019-02-20T09:15:44.461Z,35.00
2019-02-20T09:18:15.515Z,35.14
2019-02-20T09:20:45.895Z,35.30
2019-02-20T09:23:16.215Z,35.37
2019-02-20T09:25:46.569Z,35.41
2019-02-20T09:28:16.966Z,35.45
2019-02-20T09:30:48.755Z,35.46
2019-02-20T09:33:20.149Z,35.50
2019-02-20T09:35:50.558Z,35.59
2019-02-20T09:38:20.991Z,35.60
2019-02-20T09:40:51.193Z,35.63
2019-02-20T09:43:21.541Z,35.64
2019-02-20T09:45:52.013Z,35.66
2019-02-20T09:48:22.307Z,35.71
2019-02-20T09:50:52.703Z,35.71
2019-02-20T09:53:23.049Z,35.75
2019-02-20T09:55:53.463Z,35.80
2019-02-20T09:58:23.870Z,35.79
2019-02-20T10:00:54.277Z,35.84
2019-02-20T10:03:24.924Z,35.84
2019-02-20T10:05:57.901Z,35.82
2019-02-20T10:08:28.267Z,35.85
2019-02-20T10:10:59.090Z,35.85
2019-02-20T10:13:29.464Z,35.88
2019-02-20T10:15:59.788Z,35.90
2019-02-20T10:18:30.727Z,35.93
2019-02-20T10:21:01.160Z,35.93
2019-02-20T10:23:31.451Z,36.00
2019-02-20T10:26:01.861Z,36.03
2019-02-20T10:28:33.363Z,36.03
2019-02-20T10:31:03.798Z,36.01
2019-02-20T10:33:34.297Z,36.02
2019-02-20T10:36:05.882Z,36.03
2019-02-20T10:38:36.203Z,35.93
2019-02-20T10:41:07.999Z,33.80
2019-02-20T10:43:38.889Z,34.30
2019-02-20T10:46:09.295Z,34.74
2019-02-20T10:48:39.610Z,34.96
2019-02-20T10:51:10.113Z,35.10
2019-02-20T10:53:41.377Z,35.23
2019-02-20T10:56:11.671Z,35.33
2019-02-20T10:58:42.060Z,35.38
2019-02-20T11:01:12.483Z,35.46
2019-02-20T11:03:42.793Z,35.53
2019-02-20T11:06:13.213Z,35.58
2019-02-20T11:08:43.625Z,35.65
2019-02-20T11:11:14.197Z,35.67
2019-02-20T11:13:44.652Z,35.66
2019-02-20T11:16:15.049Z,35.72
2019-02-20T11:18:45.439Z,35.77
2019-02-20T11:21:15.762Z,35.83
2019-02-20T11:23:46.172Z,35.85
2019-02-20T11:26:18.497Z,35.86
2019-02-20T11:28:49.649Z,35.87
2019-02-20T11:31:19.960Z,35.89
2019-02-20T11:33:50.335Z,35.90
2019-02-20T11:36:20.659Z,35.94
2019-02-20T11:38:51.065Z,35.96
2019-02-20T11:41:21.677Z,35.97
2019-02-20T11:43:52.166Z,36.00
2019-02-20T11:46:23.277Z,36.00
2019-02-20T11:48:53.641Z,36.04
2019-02-20T11:51:24.048Z,36.09
2019-02-20T11:53:54.464Z,36.12
2019-02-20T11:56:26.850Z,36.12
2019-02-20T11:58:57.372Z,36.13
2019-02-20T12:01:27.738Z,36.15
2019-02-20T12:03:58.126Z,36.16
2019-02-20T12:06:28.510Z,36.20
2019-02-20T12:08:58.905Z,36.18
2019-02-20T12:11:29.269Z,36.21
2019-02-20T12:13:57.967Z,36.24
2019-02-20T12:16:28.348Z,36.27
2019-02-20T12:18:58.987Z,36.30
2019-02-20T12:21:29.825Z,36.29
2019-02-20T12:24:00.375Z,36.35
2019-02-20T12:26:35.175Z,36.35
2019-02-20T12:29:02.876Z,36.34
2019-02-20T12:31:34.834Z,36.39
2019-02-20T12:34:05.265Z,36.38
2019-02-20T12:36:35.698Z,36.38
2019-02-20T12:39:06.334Z,36.39
2019-02-20T12:41:37.267Z,36.37
2019-02-20T12:44:07.670Z,36.36
2019-02-20T12:46:38.095Z,36.38
2019-02-20T12:49:08.474Z,36.37
2019-02-20T12:51:39.167Z,36.38
2019-02-20T12:54:09.603Z,36.40
2019-02-20T12:56:43.870Z,36.41
2019-02-20T12:59:12.089Z,36.40
2019-02-20T13:01:42.521Z,36.43
2019-02-20T13:04:12.846Z,36.43
2019-02-20T13:06:43.199Z,36.41
2019-02-20T13:09:17.161Z,36.43
2019-02-20T13:11:47.666Z,36.48
2019-02-20T13:14:17.961Z,36.48
2019-02-20T13:16:49.381Z,36.46
2019-02-20T13:19:20.823Z,36.53
2019-02-20T13:21:52.582Z,36.54
2019-02-20T13:24:24.070Z,36.54
2019-02-20T13:26:54.421Z,36.58
2019-02-20T13:29:24.914Z,36.59
2019-02-20T13:31:55.269Z,36.62
2019-02-20T13:34:25.688Z,36.63
2019-02-20T13:36:55.994Z,36.63
2019-02-20T13:39:26.385Z,36.66
2019-02-20T13:41:56.743Z,36.65
2019-02-20T13:44:27.103Z,36.70
2019-02-20T13:46:59.391Z,36.72
2019-02-20T13:49:30.499Z,36.74
2019-02-20T13:52:00.845Z,36.72
2019-02-20T13:54:31.711Z,36.76
2019-02-20T13:57:02.608Z,36.76
2019-02-20T13:59:35.818Z,36.79
2019-02-20T14:02:06.204Z,36.80
2019-02-20T14:04:36.679Z,36.81
2019-02-20T14:07:07.072Z,36.83
2019-02-20T14:09:37.447Z,36.86
2019-02-20T14:12:07.922Z,36.87
2019-02-20T14:14:38.615Z,36.90
2019-02-20T14:17:09.056Z,36.91
2019-02-20T14:19:39.419Z,36.92
2019-02-20T14:22:09.823Z,36.90
2019-02-20T14:24:40.202Z,36.94
2019-02-20T14:27:11.336Z,36.96
2019-02-20T14:29:41.859Z,36.96
2019-02-20T14:32:12.273Z,36.95
2019-02-20T14:34:42.669Z,36.99
2019-02-20T14:37:14.190Z,36.99
2019-02-20T14:39:44.529Z,37.00
2019-02-20T14:42:16.036Z,37.00
2019-02-20T14:44:46.495Z,37.04
2019-02-20T14:47:16.917Z,37.07
2019-02-20T14:49:47.355Z,37.07
2019-02-20T14:52:18.674Z,37.07
2019-02-20T14:54:49.118Z,37.08
2019-02-20T14:57:19.909Z,37.07
2019-02-20T14:59:50.305Z,37.08
2019-02-20T15:02:20.644Z,37.11
2019-02-20T15:04:51.055Z,37.12
2019-02-20T15:07:21.386Z,37.09
2019-02-20T15:09:51.767Z,37.14
2019-02-20T15:12:22.201Z,37.14
2019-02-20T15:14:52.645Z,37.16
2019-02-20T15:17:23.049Z,37.14
2019-02-20T15:19:53.394Z,37.18
2019-02-20T15:22:23.886Z,37.21
2019-02-20T15:24:55.093Z,37.18
2019-02-20T15:27:28.629Z,37.16
2019-02-20T15:29:57.589Z,37.18
2019-02-20T15:32:27.969Z,37.18
2019-02-20T15:34:58.383Z,37.22
2019-02-20T15:37:28.785Z,37.22
2019-02-20T15:39:59.196Z,37.19
2019-02-20T15:42:29.592Z,37.22
2019-02-20T15:45:01.015Z,37.25
2019-02-20T15:47:31.437Z,37.24
2019-02-20T15:50:01.860Z,37.26
2019-02-20T15:52:32.697Z,37.29
2019-02-20T15:55:03.960Z,37.30
2019-02-20T15:57:38.004Z,37.31
2019-02-20T16:00:07.897Z,37.31
2019-02-20T16:02:38.553Z,37.31
2019-02-20T16:05:09.071Z,37.31
2019-02-20T16:07:39.550Z,37.29
2019-02-20T16:10:10.148Z,37.32
2019-02-20T16:12:40.570Z,37.35
2019-02-20T16:15:11.373Z,37.33
2019-02-20T16:17:41.774Z,37.35
2019-02-20T16:20:12.772Z,37.35
2019-02-20T16:22:43.233Z,37.35
2019-02-20T16:25:14.435Z,37.38
2019-02-20T16:27:47.466Z,37.37
2019-02-20T16:30:17.003Z,37.39
2019-02-20T16:32:47.384Z,37.41
2019-02-20T16:35:17.969Z,37.40
2019-02-20T16:37:48.376Z,37.39
2019-02-20T16:40:18.738Z,37.42
2019-02-20T16:42:49.096Z,37.44
2019-02-20T16:45:21.351Z,37.43
2019-02-20T16:47:52.146Z,37.43
2019-02-20T16:50:22.571Z,37.45
2019-02-20T16:52:52.990Z,37.48
2019-02-20T16:55:23.291Z,37.47
2019-02-20T16:57:56.791Z,37.49
2019-02-20T17:00:25.863Z,37.50
2019-02-20T17:02:56.830Z,37.51
2019-02-20T17:05:27.316Z,37.51
2019-02-20T17:07:57.657Z,37.51
2019-02-20T17:10:27.981Z,37.48
2019-02-20T17:12:58.321Z,37.48
2019-02-20T17:15:28.758Z,37.50
2019-02-20T17:17:59.163Z,37.50
2019-02-20T17:20:29.795Z,37.52
2019-02-20T17:23:00.149Z,37.51
2019-02-20T17:25:30.470Z,37.52
2019-02-20T17:28:05.703Z,37.52
2019-02-20T17:30:32.921Z,37.51
2019-02-20T17:33:04.144Z,37.51
2019-02-20T17:35:34.495Z,37.54
2019-02-20T17:38:04.801Z,37.51
2019-02-20T17:40:35.234Z,37.54
2019-02-20T17:43:06.891Z,37.56
2019-02-20T17:45:40.245Z,37.54
2019-02-20T17:48:11.044Z,37.54
2019-02-20T17:50:41.440Z,37.56
2019-02-20T17:53:14.952Z,37.55
2019-02-20T17:55:45.401Z,37.56
2019-02-20T17:58:15.756Z,37.57
2019-02-20T18:00:46.400Z,37.54
2019-02-20T18:03:16.857Z,37.55
2019-02-20T18:05:48.903Z,37.54
2019-02-20T18:08:19.373Z,37.55
2019-02-20T18:10:52.434Z,37.56
2019-02-20T18:13:25.606Z,37.56
2019-02-20T18:15:55.985Z,37.57
2019-02-20T18:18:28.077Z,37.56
2019-02-20T18:20:58.783Z,37.56
2019-02-20T18:23:29.169Z,37.53
2019-02-20T18:25:59.518Z,37.53
2019-02-20T18:28:29.974Z,37.55
2019-02-20T18:31:00.483Z,37.55
2019-02-20T18:33:30.929Z,37.55
2019-02-20T18:36:01.317Z,37.55
2019-02-20T18:38:33.827Z,37.57
2019-02-20T18:41:04.285Z,37.57
2019-02-20T18:43:35.687Z,37.54
2019-02-20T18:46:06.042Z,37.55
2019-02-20T18:48:37.482Z,37.55
2019-02-20T18:51:09.634Z,37.55
2019-02-20T18:53:41.618Z,37.57
2019-02-20T18:56:11.997Z,37.56
2019-02-20T18:58:42.359Z,37.56
2019-02-20T19:01:12.799Z,37.55
2019-02-20T19:03:43.211Z,37.55
2019-02-20T19:06:13.551Z,37.56
2019-02-20T19:08:48.796Z,37.55
2019-02-20T19:12:03.296Z,37.55
2019-02-20T19:15:02.618Z,37.56
2019-02-20T19:17:55.651Z,37.54
2019-02-20T19:21:04.264Z,37.57
2019-02-20T19:24:17.350Z,37.58
2019-02-20T19:27:41.601Z,37.58
2019-02-20T19:31:01.727Z,37.58
2019-02-20T19:34:04.626Z,37.55
2019-02-20T19:37:11.612Z,37.55
2019-02-20T19:40:28.456Z,37.51
2019-02-20T19:43:43.207Z,37.51
2019-02-20T19:46:57.894Z,37.55
2019-02-20T19:49:38.689Z,37.53
2019-02-20T19:52:54.902Z,37.51
2019-02-20T19:55:50.235Z,37.49
2019-02-20T19:59:26.110Z,37.54
2019-02-20T20:02:39.880Z,37.50
2019-02-20T20:05:40.117Z,37.51
2019-02-20T20:08:39.523Z,37.51
2019-02-20T20:11:26.895Z,37.51
2019-02-20T20:14:32.086Z,37.47
2019-02-20T20:17:39.410Z,37.51
2019-02-20T20:20:32.042Z,37.53
2019-02-20T20:23:38.433Z,37.52
2019-02-20T20:26:27.500Z,37.50
2019-02-20T20:29:57.654Z,37.49
2019-02-20T20:33:17.188Z,37.49
2019-02-20T20:36:37.847Z,37.46
2019-02-20T20:39:36.428Z,37.46
2019-02-20T20:42:32.709Z,37.46
2019-02-20T20:45:42.013Z,37.47
2019-02-20T20:48:31.978Z,37.50
2019-02-20T20:51:46.233Z,37.48
2019-02-20T20:55:04.860Z,37.47
2019-02-20T20:57:56.512Z,37.47
2019-02-20T21:01:08.544Z,37.46
2019-02-20T21:03:53.292Z,37.45
2019-02-20T21:06:42.905Z,37.47
2019-02-20T21:09:38.958Z,37.43
2019-02-20T21:12:54.619Z,37.41
2019-02-20T21:16:14.434Z,37.32
2019-02-20T21:19:21.262Z,37.27
2019-02-20T21:22:47.075Z,37.39
2019-02-20T21:25:38.809Z,37.48
2019-02-20T21:28:53.153Z,37.52
2019-02-20T21:32:02.421Z,37.60
2019-02-20T21:35:25.282Z,37.74
2019-02-20T21:38:39.631Z,37.82
2019-02-20T21:42:00.567Z,37.92
2019-02-20T21:45:05.436Z,37.99
2019-02-20T21:48:08.297Z,37.97
2019-02-20T21:51:11.442Z,37.88
2019-02-20T21:54:10.907Z,37.80
2019-02-20T21:57:09.655Z,37.78
2019-02-20T22:00:17.589Z,37.68
2019-02-20T22:03:35.653Z,37.62
2019-02-20T22:06:56.003Z,37.62
2019-02-20T22:09:59.155Z,37.58
2019-02-20T22:13:12.949Z,37.60
2019-02-20T22:16:22.871Z,37.58
2019-02-20T22:19:19.935Z,37.58
2019-02-20T22:22:36.406Z,37.56
2019-02-20T22:25:56.888Z,37.54
2019-02-20T22:29:06.572Z,37.49
2019-02-20T22:32:27.346Z,37.54
2019-02-20T22:35:42.279Z,37.53
2019-02-20T22:38:36.583Z,37.51
2019-02-20T22:41:32.777Z,37.54
2019-02-20T22:44:40.194Z,37.67
2019-02-20T22:47:41.356Z,37.73
2019-02-20T22:50:37.104Z,37.91
2019-02-20T22:53:27.377Z,38.08
2019-02-20T22:56:36.345Z,38.25
2019-02-20T22:59:25.870Z,38.57
2019-02-20T23:02:30.853Z,38.92
2019-02-20T23:05:37.438Z,39.02
2019-02-20T23:08:55.599Z,39.42
2019-02-20T23:12:09.465Z,39.28
2019-02-20T23:15:01.170Z,39.52
2019-02-20T23:17:34.755Z,39.67
2019-02-20T23:20:08.182Z,39.80
2019-02-20T23:22:39.639Z,39.86
2019-02-20T23:25:12.000Z,39.92
2019-02-20T23:27:42.697Z,39.90
2019-02-20T23:30:13.412Z,39.93
2019-02-20T23:32:44.914Z,39.92
2019-02-20T23:35:16.651Z,39.93
2019-02-20T23:37:51.129Z,39.89
2019-02-20T23:40:22.031Z,39.85
2019-02-20T23:42:52.464Z,39.83
2019-02-20T23:45:22.899Z,39.81
2019-02-20T23:47:53.355Z,39.80
2019-02-20T23:50:23.771Z,39.80
2019-02-20T23:52:55.286Z,39.76
2019-02-20T23:55:25.721Z,39.73
2019-02-20T23:57:56.119Z,39.75
